sensor_id;sensor_type;location;lat;lon;timestamp;P1;durP1;ratioP1;P2;durP2;ratioP2
73980;SDS011;62348;51.412;5.436;2023-03-11T00:00:18;6.65;;;2.05;;
73980;SDS011;62348;51.412;5.436;2023-03-11T00:02:46;7.05;;;2.33;;
73980;SDS011;62348;51.412;5.436;2023-03-11T00:05:24;8.98;;;1.98;;
73980;SDS011;62348;51.412;5.436;2023-03-11T00:07:51;4.45;;;2.03;;
73980;SDS011;62348;51.412;5.436;2023-03-11T00:10:18;9.68;;;2.20;;
73980;SDS011;62348;51.412;5.436;2023-03-11T00:12:46;4.78;;;2.22;;
73980;SDS011;62348;51.412;5.436;2023-03-11T00:15:12;10.27;;;3.30;;
73980;SDS011;62348;51.412;5.436;2023-03-11T00:17:37;9.25;;;2.28;;
73980;SDS011;62348;51.412;5.436;2023-03-11T00:20:04;4.95;;;2.10;;
73980;SDS011;62348;51.412;5.436;2023-03-11T00:22:31;6.50;;;2.28;;
73980;SDS011;62348;51.412;5.436;2023-03-11T00:24:57;7.43;;;2.33;;
73980;SDS011;62348;51.412;5.436;2023-03-11T00:27:22;8.82;;;2.80;;
73980;SDS011;62348;51.412;5.436;2023-03-11T00:29:47;8.40;;;3.08;;
73980;SDS011;62348;51.412;5.436;2023-03-11T00:32:13;5.20;;;2.00;;
73980;SDS011;62348;51.412;5.436;2023-03-11T00:34:38;7.43;;;2.10;;
73980;SDS011;62348;51.412;5.436;2023-03-11T00:37:04;5.30;;;1.83;;
73980;SDS011;62348;51.412;5.436;2023-03-11T00:39:29;5.68;;;1.55;;
73980;SDS011;62348;51.412;5.436;2023-03-11T00:41:54;8.65;;;1.83;;
73980;SDS011;62348;51.412;5.436;2023-03-11T00:44:20;9.73;;;1.80;;
73980;SDS011;62348;51.412;5.436;2023-03-11T00:46:46;6.75;;;1.75;;
73980;SDS011;62348;51.412;5.436;2023-03-11T00:49:12;4.45;;;1.60;;
73980;SDS011;62348;51.412;5.436;2023-03-11T00:51:37;6.78;;;1.60;;
73980;SDS011;62348;51.412;5.436;2023-03-11T00:54:03;5.57;;;1.83;;
73980;SDS011;62348;51.412;5.436;2023-03-11T00:56:28;3.85;;;1.58;;
73980;SDS011;62348;51.412;5.436;2023-03-11T00:58:55;4.95;;;1.88;;
73980;SDS011;62348;51.412;5.436;2023-03-11T01:01:20;11.60;;;2.00;;
73980;SDS011;62348;51.412;5.436;2023-03-11T01:03:45;7.18;;;1.60;;
73980;SDS011;62348;51.412;5.436;2023-03-11T01:06:11;5.25;;;1.67;;
73980;SDS011;62348;51.412;5.436;2023-03-11T01:08:37;4.85;;;2.53;;
73980;SDS011;62348;51.412;5.436;2023-03-11T01:11:03;5.78;;;1.92;;
73980;SDS011;62348;51.412;5.436;2023-03-11T01:13:30;7.60;;;1.77;;
73980;SDS011;62348;51.412;5.436;2023-03-11T01:15:56;15.70;;;2.97;;
73980;SDS011;62348;51.412;5.436;2023-03-11T01:18:22;8.30;;;1.85;;
73980;SDS011;62348;51.412;5.436;2023-03-11T01:20:48;8.65;;;2.10;;
73980;SDS011;62348;51.412;5.436;2023-03-11T01:23:14;4.32;;;1.90;;
73980;SDS011;62348;51.412;5.436;2023-03-11T01:25:40;4.68;;;1.52;;
73980;SDS011;62348;51.412;5.436;2023-03-11T01:28:06;7.88;;;2.00;;
73980;SDS011;62348;51.412;5.436;2023-03-11T01:30:32;9.98;;;2.15;;
73980;SDS011;62348;51.412;5.436;2023-03-11T01:33:00;8.32;;;1.83;;
73980;SDS011;62348;51.412;5.436;2023-03-11T01:35:26;5.93;;;1.75;;
73980;SDS011;62348;51.412;5.436;2023-03-11T01:37:53;7.88;;;2.38;;
73980;SDS011;62348;51.412;5.436;2023-03-11T01:40:25;2.78;;;1.67;;
73980;SDS011;62348;51.412;5.436;2023-03-11T01:42:54;4.43;;;1.65;;
73980;SDS011;62348;51.412;5.436;2023-03-11T01:48:04;8.25;;;1.80;;
73980;SDS011;62348;51.412;5.436;2023-03-11T01:50:32;15.02;;;2.30;;
73980;SDS011;62348;51.412;5.436;2023-03-11T01:53:00;4.93;;;1.73;;
73980;SDS011;62348;51.412;5.436;2023-03-11T01:55:27;6.55;;;2.03;;
73980;SDS011;62348;51.412;5.436;2023-03-11T01:57:53;4.65;;;2.38;;
73980;SDS011;62348;51.412;5.436;2023-03-11T02:00:19;6.85;;;1.55;;
73980;SDS011;62348;51.412;5.436;2023-03-11T02:02:51;6.45;;;1.73;;
73980;SDS011;62348;51.412;5.436;2023-03-11T02:05:20;8.27;;;1.95;;
73980;SDS011;62348;51.412;5.436;2023-03-11T02:07:47;5.88;;;2.40;;
73980;SDS011;62348;51.412;5.436;2023-03-11T02:10:13;4.35;;;1.70;;
73980;SDS011;62348;51.412;5.436;2023-03-11T02:12:39;8.07;;;1.80;;
73980;SDS011;62348;51.412;5.436;2023-03-11T02:15:06;10.45;;;2.13;;
73980;SDS011;62348;51.412;5.436;2023-03-11T02:17:33;5.28;;;1.77;;
73980;SDS011;62348;51.412;5.436;2023-03-11T02:22:32;3.50;;;1.80;;
73980;SDS011;62348;51.412;5.436;2023-03-11T02:27:31;10.10;;;1.88;;
73980;SDS011;62348;51.412;5.436;2023-03-11T02:30:00;8.98;;;1.98;;
73980;SDS011;62348;51.412;5.436;2023-03-11T02:32:26;7.45;;;2.45;;
73980;SDS011;62348;51.412;5.436;2023-03-11T02:34:52;9.40;;;2.72;;
73980;SDS011;62348;51.412;5.436;2023-03-11T02:37:18;8.10;;;1.85;;
73980;SDS011;62348;51.412;5.436;2023-03-11T02:39:45;5.00;;;1.67;;
73980;SDS011;62348;51.412;5.436;2023-03-11T02:44:59;6.85;;;1.70;;
73980;SDS011;62348;51.412;5.436;2023-03-11T02:47:28;3.75;;;2.08;;
73980;SDS011;62348;51.412;5.436;2023-03-11T02:49:55;7.50;;;2.10;;
73980;SDS011;62348;51.412;5.436;2023-03-11T02:52:21;5.50;;;1.95;;
73980;SDS011;62348;51.412;5.436;2023-03-11T02:54:49;7.03;;;1.88;;
73980;SDS011;62348;51.412;5.436;2023-03-11T02:57:14;6.28;;;2.55;;
73980;SDS011;62348;51.412;5.436;2023-03-11T02:59:39;8.45;;;1.75;;
73980;SDS011;62348;51.412;5.436;2023-03-11T03:02:05;4.63;;;1.85;;
73980;SDS011;62348;51.412;5.436;2023-03-11T03:04:30;9.40;;;3.42;;
73980;SDS011;62348;51.412;5.436;2023-03-11T03:06:56;3.83;;;1.70;;
73980;SDS011;62348;51.412;5.436;2023-03-11T03:09:21;9.43;;;2.65;;
73980;SDS011;62348;51.412;5.436;2023-03-11T03:11:46;3.70;;;2.15;;
73980;SDS011;62348;51.412;5.436;2023-03-11T03:14:12;6.65;;;2.05;;
73980;SDS011;62348;51.412;5.436;2023-03-11T03:16:37;5.85;;;2.13;;
73980;SDS011;62348;51.412;5.436;2023-03-11T03:19:03;5.03;;;1.98;;
73980;SDS011;62348;51.412;5.436;2023-03-11T03:21:28;6.97;;;1.90;;
73980;SDS011;62348;51.412;5.436;2023-03-11T03:23:54;12.48;;;2.75;;
73980;SDS011;62348;51.412;5.436;2023-03-11T03:26:19;11.85;;;4.35;;
73980;SDS011;62348;51.412;5.436;2023-03-11T03:28:44;6.82;;;2.22;;
73980;SDS011;62348;51.412;5.436;2023-03-11T03:31:10;9.60;;;2.45;;
73980;SDS011;62348;51.412;5.436;2023-03-11T03:33:36;9.55;;;2.60;;
73980;SDS011;62348;51.412;5.436;2023-03-11T03:36:05;5.43;;;2.05;;
73980;SDS011;62348;51.412;5.436;2023-03-11T03:38:32;6.78;;;2.40;;
73980;SDS011;62348;51.412;5.436;2023-03-11T03:40:57;7.80;;;2.35;;
73980;SDS011;62348;51.412;5.436;2023-03-11T03:43:23;7.88;;;2.13;;
73980;SDS011;62348;51.412;5.436;2023-03-11T03:45:55;7.68;;;2.30;;
73980;SDS011;62348;51.412;5.436;2023-03-11T03:48:22;6.07;;;2.15;;
73980;SDS011;62348;51.412;5.436;2023-03-11T03:50:47;10.13;;;2.53;;
73980;SDS011;62348;51.412;5.436;2023-03-11T03:53:13;9.60;;;2.75;;
73980;SDS011;62348;51.412;5.436;2023-03-11T03:55:38;6.47;;;2.55;;
73980;SDS011;62348;51.412;5.436;2023-03-11T03:58:03;7.60;;;2.35;;
73980;SDS011;62348;51.412;5.436;2023-03-11T04:00:29;9.30;;;2.70;;
73980;SDS011;62348;51.412;5.436;2023-03-11T04:02:54;5.18;;;2.30;;
73980;SDS011;62348;51.412;5.436;2023-03-11T04:05:19;8.93;;;2.50;;
73980;SDS011;62348;51.412;5.436;2023-03-11T04:07:45;4.85;;;2.53;;
73980;SDS011;62348;51.412;5.436;2023-03-11T04:10:12;4.75;;;2.22;;
73980;SDS011;62348;51.412;5.436;2023-03-11T04:12:38;7.82;;;2.38;;
73980;SDS011;62348;51.412;5.436;2023-03-11T04:15:03;7.40;;;2.78;;
73980;SDS011;62348;51.412;5.436;2023-03-11T04:17:29;8.73;;;2.55;;
73980;SDS011;62348;51.412;5.436;2023-03-11T04:19:54;5.68;;;2.30;;
73980;SDS011;62348;51.412;5.436;2023-03-11T04:22:20;3.90;;;3.30;;
73980;SDS011;62348;51.412;5.436;2023-03-11T04:24:45;10.93;;;3.08;;
73980;SDS011;62348;51.412;5.436;2023-03-11T04:27:11;5.05;;;2.88;;
73980;SDS011;62348;51.412;5.436;2023-03-11T04:29:36;7.95;;;2.75;;
73980;SDS011;62348;51.412;5.436;2023-03-11T04:32:01;4.43;;;2.90;;
73980;SDS011;62348;51.412;5.436;2023-03-11T04:34:27;7.40;;;2.67;;
73980;SDS011;62348;51.412;5.436;2023-03-11T04:36:53;10.43;;;2.45;;
73980;SDS011;62348;51.412;5.436;2023-03-11T04:39:19;7.40;;;2.60;;
73980;SDS011;62348;51.412;5.436;2023-03-11T04:41:44;5.43;;;3.00;;
73980;SDS011;62348;51.412;5.436;2023-03-11T04:44:10;7.30;;;2.58;;
73980;SDS011;62348;51.412;5.436;2023-03-11T04:46:35;11.10;;;2.70;;
73980;SDS011;62348;51.412;5.436;2023-03-11T04:49:00;9.85;;;3.03;;
73980;SDS011;62348;51.412;5.436;2023-03-11T04:51:26;7.30;;;3.33;;
73980;SDS011;62348;51.412;5.436;2023-03-11T04:53:51;6.72;;;2.72;;
73980;SDS011;62348;51.412;5.436;2023-03-11T04:56:16;8.88;;;2.72;;
73980;SDS011;62348;51.412;5.436;2023-03-11T04:58:42;4.13;;;2.53;;
73980;SDS011;62348;51.412;5.436;2023-03-11T05:01:07;11.20;;;2.80;;
73980;SDS011;62348;51.412;5.436;2023-03-11T05:03:33;6.85;;;3.10;;
73980;SDS011;62348;51.412;5.436;2023-03-11T05:05:58;6.60;;;2.97;;
73980;SDS011;62348;51.412;5.436;2023-03-11T05:08:24;11.32;;;3.03;;
73980;SDS011;62348;51.412;5.436;2023-03-11T05:10:50;5.57;;;2.97;;
73980;SDS011;62348;51.412;5.436;2023-03-11T05:13:17;7.88;;;2.85;;
73980;SDS011;62348;51.412;5.436;2023-03-11T05:15:43;7.35;;;3.38;;
73980;SDS011;62348;51.412;5.436;2023-03-11T05:18:12;9.80;;;3.00;;
73980;SDS011;62348;51.412;5.436;2023-03-11T05:20:38;9.18;;;3.10;;
73980;SDS011;62348;51.412;5.436;2023-03-11T05:23:04;5.82;;;2.50;;
73980;SDS011;62348;51.412;5.436;2023-03-11T05:25:29;8.00;;;2.58;;
73980;SDS011;62348;51.412;5.436;2023-03-11T05:27:55;10.20;;;3.13;;
73980;SDS011;62348;51.412;5.436;2023-03-11T05:30:20;9.65;;;2.58;;
73980;SDS011;62348;51.412;5.436;2023-03-11T05:32:46;8.30;;;2.78;;
73980;SDS011;62348;51.412;5.436;2023-03-11T05:35:11;7.93;;;3.00;;
73980;SDS011;62348;51.412;5.436;2023-03-11T05:37:37;8.70;;;3.13;;
73980;SDS011;62348;51.412;5.436;2023-03-11T05:40:04;5.90;;;3.17;;
73980;SDS011;62348;51.412;5.436;2023-03-11T05:42:31;4.78;;;2.35;;
73980;SDS011;62348;51.412;5.436;2023-03-11T05:44:57;6.38;;;2.80;;
73980;SDS011;62348;51.412;5.436;2023-03-11T05:47:22;4.78;;;4.07;;
73980;SDS011;62348;51.412;5.436;2023-03-11T05:49:47;9.48;;;2.92;;
73980;SDS011;62348;51.412;5.436;2023-03-11T05:52:13;4.93;;;2.80;;
73980;SDS011;62348;51.412;5.436;2023-03-11T05:54:39;12.07;;;3.03;;
73980;SDS011;62348;51.412;5.436;2023-03-11T05:57:04;10.20;;;3.15;;
73980;SDS011;62348;51.412;5.436;2023-03-11T05:59:30;6.47;;;3.20;;
73980;SDS011;62348;51.412;5.436;2023-03-11T06:01:56;8.82;;;2.97;;
73980;SDS011;62348;51.412;5.436;2023-03-11T06:04:22;9.13;;;3.20;;
73980;SDS011;62348;51.412;5.436;2023-03-11T06:06:48;7.97;;;2.75;;
73980;SDS011;62348;51.412;5.436;2023-03-11T06:09:14;7.65;;;3.00;;
73980;SDS011;62348;51.412;5.436;2023-03-11T06:11:40;7.25;;;2.88;;
73980;SDS011;62348;51.412;5.436;2023-03-11T06:14:05;5.15;;;2.58;;
73980;SDS011;62348;51.412;5.436;2023-03-11T06:16:31;5.32;;;2.88;;
73980;SDS011;62348;51.412;5.436;2023-03-11T06:18:56;12.02;;;3.45;;
73980;SDS011;62348;51.412;5.436;2023-03-11T06:21:24;9.98;;;3.53;;
73980;SDS011;62348;51.412;5.436;2023-03-11T06:23:51;7.80;;;3.13;;
73980;SDS011;62348;51.412;5.436;2023-03-11T06:26:18;6.07;;;3.28;;
73980;SDS011;62348;51.412;5.436;2023-03-11T06:28:44;9.95;;;3.15;;
73980;SDS011;62348;51.412;5.436;2023-03-11T06:31:19;7.85;;;3.15;;
73980;SDS011;62348;51.412;5.436;2023-03-11T06:33:48;11.95;;;4.28;;
73980;SDS011;62348;51.412;5.436;2023-03-11T06:36:14;7.80;;;4.18;;
73980;SDS011;62348;51.412;5.436;2023-03-11T06:38:41;11.55;;;3.95;;
73980;SDS011;62348;51.412;5.436;2023-03-11T06:41:07;11.45;;;5.25;;
73980;SDS011;62348;51.412;5.436;2023-03-11T06:43:33;8.63;;;3.92;;
73980;SDS011;62348;51.412;5.436;2023-03-11T06:46:00;10.65;;;3.83;;
73980;SDS011;62348;51.412;5.436;2023-03-11T06:48:26;9.27;;;3.65;;
73980;SDS011;62348;51.412;5.436;2023-03-11T06:50:53;10.32;;;5.75;;
73980;SDS011;62348;51.412;5.436;2023-03-11T06:56:23;7.05;;;4.28;;
73980;SDS011;62348;51.412;5.436;2023-03-11T06:58:41;7.97;;;3.60;;
73980;SDS011;62348;51.412;5.436;2023-03-11T07:01:09;12.30;;;3.95;;
73980;SDS011;62348;51.412;5.436;2023-03-11T07:03:42;9.90;;;3.80;;
73980;SDS011;62348;51.412;5.436;2023-03-11T07:06:13;7.90;;;4.00;;
73980;SDS011;62348;51.412;5.436;2023-03-11T07:08:44;11.70;;;4.50;;
73980;SDS011;62348;51.412;5.436;2023-03-11T07:11:17;9.35;;;3.75;;
73980;SDS011;62348;51.412;5.436;2023-03-11T07:13:45;10.38;;;4.20;;
73980;SDS011;62348;51.412;5.436;2023-03-11T07:16:12;11.23;;;4.18;;
73980;SDS011;62348;51.412;5.436;2023-03-11T07:18:42;5.47;;;3.47;;
73980;SDS011;62348;51.412;5.436;2023-03-11T07:21:10;9.70;;;3.88;;
73980;SDS011;62348;51.412;5.436;2023-03-11T07:23:38;9.70;;;3.78;;
73980;SDS011;62348;51.412;5.436;2023-03-11T07:26:04;7.18;;;3.60;;
73980;SDS011;62348;51.412;5.436;2023-03-11T07:28:29;12.45;;;3.70;;
73980;SDS011;62348;51.412;5.436;2023-03-11T07:30:55;7.25;;;3.42;;
73980;SDS011;62348;51.412;5.436;2023-03-11T07:33:21;7.75;;;3.30;;
73980;SDS011;62348;51.412;5.436;2023-03-11T07:35:48;6.85;;;3.90;;
73980;SDS011;62348;51.412;5.436;2023-03-11T07:38:14;6.50;;;3.67;;
73980;SDS011;62348;51.412;5.436;2023-03-11T07:40:41;5.82;;;3.80;;
73980;SDS011;62348;51.412;5.436;2023-03-11T07:43:07;8.73;;;3.95;;
73980;SDS011;62348;51.412;5.436;2023-03-11T07:45:33;6.50;;;4.47;;
73980;SDS011;62348;51.412;5.436;2023-03-11T07:47:58;10.23;;;4.00;;
73980;SDS011;62348;51.412;5.436;2023-03-11T07:50:24;6.35;;;4.22;;
73980;SDS011;62348;51.412;5.436;2023-03-11T07:52:49;6.70;;;3.28;;
73980;SDS011;62348;51.412;5.436;2023-03-11T07:55:15;5.47;;;3.47;;
73980;SDS011;62348;51.412;5.436;2023-03-11T07:57:40;10.77;;;3.95;;
73980;SDS011;62348;51.412;5.436;2023-03-11T08:00:07;10.23;;;3.55;;
73980;SDS011;62348;51.412;5.436;2023-03-11T08:02:33;7.30;;;5.22;;
73980;SDS011;62348;51.412;5.436;2023-03-11T08:04:58;10.65;;;4.95;;
73980;SDS011;62348;51.412;5.436;2023-03-11T08:07:24;8.88;;;4.35;;
73980;SDS011;62348;51.412;5.436;2023-03-11T08:09:49;11.18;;;4.32;;
73980;SDS011;62348;51.412;5.436;2023-03-11T08:12:14;10.38;;;4.13;;
73980;SDS011;62348;51.412;5.436;2023-03-11T08:14:40;4.75;;;4.18;;
73980;SDS011;62348;51.412;5.436;2023-03-11T08:17:07;7.55;;;3.88;;
73980;SDS011;62348;51.412;5.436;2023-03-11T08:19:33;9.15;;;4.65;;
73980;SDS011;62348;51.412;5.436;2023-03-11T08:22:00;9.65;;;4.05;;
73980;SDS011;62348;51.412;5.436;2023-03-11T08:24:28;9.10;;;3.92;;
73980;SDS011;62348;51.412;5.436;2023-03-11T08:26:53;6.05;;;2.83;;
73980;SDS011;62348;51.412;5.436;2023-03-11T08:29:21;7.32;;;3.75;;
73980;SDS011;62348;51.412;5.436;2023-03-11T08:31:47;7.32;;;3.85;;
73980;SDS011;62348;51.412;5.436;2023-03-11T08:34:12;8.13;;;3.20;;
73980;SDS011;62348;51.412;5.436;2023-03-11T08:36:38;7.97;;;3.53;;
73980;SDS011;62348;51.412;5.436;2023-03-11T08:39:04;8.43;;;3.28;;
73980;SDS011;62348;51.412;5.436;2023-03-11T08:41:30;9.35;;;3.33;;
73980;SDS011;62348;51.412;5.436;2023-03-11T08:43:55;5.65;;;2.90;;
73980;SDS011;62348;51.412;5.436;2023-03-11T08:46:25;5.57;;;2.20;;
73980;SDS011;62348;51.412;5.436;2023-03-11T08:48:56;6.78;;;1.92;;
73980;SDS011;62348;51.412;5.436;2023-03-11T08:51:23;3.70;;;1.52;;
73980;SDS011;62348;51.412;5.436;2023-03-11T08:53:49;6.82;;;1.92;;
73980;SDS011;62348;51.412;5.436;2023-03-11T08:56:15;6.25;;;1.77;;
73980;SDS011;62348;51.412;5.436;2023-03-11T08:58:40;4.70;;;1.77;;
73980;SDS011;62348;51.412;5.436;2023-03-11T09:01:06;6.38;;;2.20;;
73980;SDS011;62348;51.412;5.436;2023-03-11T09:03:33;7.55;;;1.75;;
73980;SDS011;62348;51.412;5.436;2023-03-11T09:06:00;7.05;;;1.40;;
73980;SDS011;62348;51.412;5.436;2023-03-11T09:08:27;5.95;;;1.90;;
73980;SDS011;62348;51.412;5.436;2023-03-11T09:10:53;3.25;;;1.75;;
73980;SDS011;62348;51.412;5.436;2023-03-11T09:13:18;4.50;;;1.23;;
73980;SDS011;62348;51.412;5.436;2023-03-11T09:15:44;1.52;;;1.10;;
73980;SDS011;62348;51.412;5.436;2023-03-11T09:18:12;5.28;;;1.17;;
73980;SDS011;62348;51.412;5.436;2023-03-11T09:20:39;3.55;;;1.15;;
73980;SDS011;62348;51.412;5.436;2023-03-11T09:23:05;3.50;;;1.30;;
73980;SDS011;62348;51.412;5.436;2023-03-11T09:25:32;3.80;;;1.30;;
73980;SDS011;62348;51.412;5.436;2023-03-11T09:27:57;6.90;;;1.30;;
73980;SDS011;62348;51.412;5.436;2023-03-11T09:30:22;3.95;;;0.82;;
73980;SDS011;62348;51.412;5.436;2023-03-11T09:32:48;4.68;;;0.80;;
73980;SDS011;62348;51.412;5.436;2023-03-11T09:35:13;4.43;;;1.08;;
73980;SDS011;62348;51.412;5.436;2023-03-11T09:37:39;4.90;;;0.90;;
73980;SDS011;62348;51.412;5.436;2023-03-11T09:40:04;8.32;;;1.00;;
73980;SDS011;62348;51.412;5.436;2023-03-11T09:42:39;3.20;;;0.80;;
73980;SDS011;62348;51.412;5.436;2023-03-11T09:51:13;4.00;;;0.90;;
73980;SDS011;62348;51.412;5.436;2023-03-11T09:53:46;7.00;;;0.80;;
73980;SDS011;62348;51.412;5.436;2023-03-11T09:56:19;1.92;;;0.60;;
73980;SDS011;62348;51.412;5.436;2023-03-11T09:58:47;4.68;;;1.30;;
73980;SDS011;62348;51.412;5.436;2023-03-11T10:04:12;3.95;;;0.85;;
73980;SDS011;62348;51.412;5.436;2023-03-11T10:06:40;6.78;;;0.93;;
73980;SDS011;62348;51.412;5.436;2023-03-11T10:28:27;8.30;;;1.02;;
73980;SDS011;62348;51.412;5.436;2023-03-11T10:31:01;3.10;;;0.80;;
73980;SDS011;62348;51.412;5.436;2023-03-11T10:36:03;5.28;;;1.13;;
73980;SDS011;62348;51.412;5.436;2023-03-11T10:38:33;4.60;;;1.40;;
73980;SDS011;62348;51.412;5.436;2023-03-11T10:41:05;3.35;;;1.02;;
73980;SDS011;62348;51.412;5.436;2023-03-11T10:43:38;7.38;;;1.05;;
73980;SDS011;62348;51.412;5.436;2023-03-11T10:46:15;2.80;;;0.88;;
73980;SDS011;62348;51.412;5.436;2023-03-11T10:48:47;3.40;;;0.88;;
73980;SDS011;62348;51.412;5.436;2023-03-11T10:51:15;2.28;;;1.00;;
73980;SDS011;62348;51.412;5.436;2023-03-11T10:53:53;2.95;;;0.95;;
73980;SDS011;62348;51.412;5.436;2023-03-11T10:56:36;5.22;;;1.00;;
73980;SDS011;62348;51.412;5.436;2023-03-11T10:59:05;1.52;;;1.00;;
73980;SDS011;62348;51.412;5.436;2023-03-11T11:01:52;2.75;;;0.90;;
73980;SDS011;62348;51.412;5.436;2023-03-11T11:04:38;3.78;;;1.20;;
73980;SDS011;62348;51.412;5.436;2023-03-11T11:10:16;3.17;;;0.60;;
73980;SDS011;62348;51.412;5.436;2023-03-11T11:12:58;2.63;;;0.70;;
73980;SDS011;62348;51.412;5.436;2023-03-11T11:17:56;4.25;;;0.80;;
73980;SDS011;62348;51.412;5.436;2023-03-11T11:20:30;5.07;;;0.70;;
73980;SDS011;62348;51.412;5.436;2023-03-11T11:22:57;1.20;;;0.70;;
73980;SDS011;62348;51.412;5.436;2023-03-11T11:25:25;4.72;;;1.00;;
73980;SDS011;62348;51.412;5.436;2023-03-11T11:28:01;4.72;;;0.90;;
73980;SDS011;62348;51.412;5.436;2023-03-11T11:30:29;2.47;;;0.90;;
73980;SDS011;62348;51.412;5.436;2023-03-11T11:32:54;2.35;;;0.90;;
73980;SDS011;62348;51.412;5.436;2023-03-11T11:35:21;3.15;;;0.75;;
73980;SDS011;62348;51.412;5.436;2023-03-11T11:37:50;4.28;;;1.23;;
73980;SDS011;62348;51.412;5.436;2023-03-11T11:40:22;3.33;;;1.00;;
73980;SDS011;62348;51.412;5.436;2023-03-11T11:42:53;3.15;;;0.70;;
73980;SDS011;62348;51.412;5.436;2023-03-11T11:48:11;3.53;;;0.88;;
73980;SDS011;62348;51.412;5.436;2023-03-11T11:50:43;3.30;;;1.00;;
73980;SDS011;62348;51.412;5.436;2023-03-11T11:53:30;2.90;;;0.75;;
73980;SDS011;62348;51.412;5.436;2023-03-11T11:56:17;4.47;;;0.90;;
73980;SDS011;62348;51.412;5.436;2023-03-11T11:58:42;1.98;;;0.90;;
73980;SDS011;62348;51.412;5.436;2023-03-11T12:01:15;4.68;;;0.85;;
73980;SDS011;62348;51.412;5.436;2023-03-11T12:15:42;4.93;;;0.98;;
73980;SDS011;62348;51.412;5.436;2023-03-11T12:18:19;7.78;;;0.90;;
73980;SDS011;62348;51.412;5.436;2023-03-11T12:20:56;11.52;;;1.10;;
73980;SDS011;62348;51.412;5.436;2023-03-11T12:31:25;3.20;;;0.80;;
73980;SDS011;62348;51.412;5.436;2023-03-11T12:34:00;4.22;;;0.93;;
73980;SDS011;62348;51.412;5.436;2023-03-11T12:36:29;3.35;;;0.90;;
73980;SDS011;62348;51.412;5.436;2023-03-11T12:38:56;3.60;;;0.73;;
73980;SDS011;62348;51.412;5.436;2023-03-11T12:41:45;5.43;;;1.00;;
73980;SDS011;62348;51.412;5.436;2023-03-11T12:44:25;2.00;;;0.93;;
73980;SDS011;62348;51.412;5.436;2023-03-11T12:46:59;4.32;;;1.10;;
73980;SDS011;62348;51.412;5.436;2023-03-11T12:49:27;3.78;;;1.13;;
73980;SDS011;62348;51.412;5.436;2023-03-11T13:08:07;2.50;;;0.80;;
73980;SDS011;62348;51.412;5.436;2023-03-11T13:13:48;3.25;;;1.00;;
73980;SDS011;62348;51.412;5.436;2023-03-11T13:15:48;2.78;;;0.85;;
73980;SDS011;62348;51.412;5.436;2023-03-11T13:23:34;2.17;;;0.90;;
73980;SDS011;62348;51.412;5.436;2023-03-11T13:29:14;3.55;;;0.60;;
73980;SDS011;62348;51.412;5.436;2023-03-11T13:40:11;3.28;;;0.82;;
73980;SDS011;62348;51.412;5.436;2023-03-11T13:42:56;2.35;;;0.75;;
73980;SDS011;62348;51.412;5.436;2023-03-11T13:45:28;3.33;;;1.10;;
73980;SDS011;62348;51.412;5.436;2023-03-11T13:47:57;5.32;;;0.90;;
73980;SDS011;62348;51.412;5.436;2023-03-11T13:50:37;4.25;;;1.13;;
73980;SDS011;62348;51.412;5.436;2023-03-11T13:53:09;3.72;;;0.82;;
73980;SDS011;62348;51.412;5.436;2023-03-11T13:55:44;2.38;;;0.93;;
73980;SDS011;62348;51.412;5.436;2023-03-11T13:58:29;2.92;;;1.10;;
73980;SDS011;62348;51.412;5.436;2023-03-11T14:03:21;2.33;;;0.73;;
73980;SDS011;62348;51.412;5.436;2023-03-11T14:05:54;1.23;;;0.82;;
73980;SDS011;62348;51.412;5.436;2023-03-11T14:08:26;3.78;;;0.75;;
73980;SDS011;62348;51.412;5.436;2023-03-11T14:11:00;3.13;;;1.30;;
73980;SDS011;62348;51.412;5.436;2023-03-11T14:13:31;3.80;;;1.20;;
73980;SDS011;62348;51.412;5.436;2023-03-11T14:21:02;1.75;;;1.13;;
73980;SDS011;62348;51.412;5.436;2023-03-11T14:23:32;1.70;;;1.10;;
73980;SDS011;62348;51.412;5.436;2023-03-11T14:26:22;2.30;;;1.00;;
73980;SDS011;62348;51.412;5.436;2023-03-11T14:29:17;2.95;;;0.90;;
73980;SDS011;62348;51.412;5.436;2023-03-11T14:31:45;5.18;;;1.15;;
73980;SDS011;62348;51.412;5.436;2023-03-11T14:34:16;2.33;;;0.93;;
73980;SDS011;62348;51.412;5.436;2023-03-11T14:39:28;2.55;;;0.77;;
73980;SDS011;62348;51.412;5.436;2023-03-11T14:41:55;3.20;;;1.20;;
73980;SDS011;62348;51.412;5.436;2023-03-11T14:44:43;2.58;;;1.10;;
73980;SDS011;62348;51.412;5.436;2023-03-11T14:47:19;4.45;;;1.60;;
73980;SDS011;62348;51.412;5.436;2023-03-11T14:52:35;3.22;;;0.93;;
73980;SDS011;62348;51.412;5.436;2023-03-11T14:55:17;4.07;;;1.13;;
73980;SDS011;62348;51.412;5.436;2023-03-11T14:58:01;3.33;;;1.13;;
73980;SDS011;62348;51.412;5.436;2023-03-11T15:00:35;3.30;;;1.55;;
73980;SDS011;62348;51.412;5.436;2023-03-11T15:06:08;3.15;;;1.45;;
73980;SDS011;62348;51.412;5.436;2023-03-11T15:08:41;1.90;;;1.10;;
73980;SDS011;62348;51.412;5.436;2023-03-11T15:13:35;4.78;;;1.30;;
73980;SDS011;62348;51.412;5.436;2023-03-11T15:16:03;3.97;;;1.23;;
73980;SDS011;62348;51.412;5.436;2023-03-11T15:18:34;5.97;;;0.98;;
73980;SDS011;62348;51.412;5.436;2023-03-11T15:26:25;4.70;;;1.48;;
73980;SDS011;62348;51.412;5.436;2023-03-11T15:29:03;3.45;;;1.25;;
73980;SDS011;62348;51.412;5.436;2023-03-11T15:31:40;2.65;;;1.17;;
73980;SDS011;62348;51.412;5.436;2023-03-11T15:34:09;3.80;;;1.33;;
73980;SDS011;62348;51.412;5.436;2023-03-11T15:39:24;4.90;;;1.60;;
73980;SDS011;62348;51.412;5.436;2023-03-11T15:46:54;4.07;;;1.50;;
73980;SDS011;62348;51.412;5.436;2023-03-11T15:49:20;6.00;;;1.20;;
73980;SDS011;62348;51.412;5.436;2023-03-11T15:51:46;3.20;;;1.63;;
73980;SDS011;62348;51.412;5.436;2023-03-11T15:54:11;5.07;;;1.40;;
73980;SDS011;62348;51.412;5.436;2023-03-11T15:56:37;8.48;;;1.70;;
73980;SDS011;62348;51.412;5.436;2023-03-11T15:59:03;2.30;;;1.38;;
73980;SDS011;62348;51.412;5.436;2023-03-11T16:01:29;3.45;;;1.50;;
73980;SDS011;62348;51.412;5.436;2023-03-11T16:03:54;5.43;;;1.30;;
73980;SDS011;62348;51.412;5.436;2023-03-11T16:06:20;3.13;;;1.25;;
73980;SDS011;62348;51.412;5.436;2023-03-11T16:08:48;8.48;;;1.67;;
73980;SDS011;62348;51.412;5.436;2023-03-11T16:11:16;3.03;;;1.85;;
73980;SDS011;62348;51.412;5.436;2023-03-11T16:13:42;5.47;;;1.67;;
73980;SDS011;62348;51.412;5.436;2023-03-11T16:16:15;3.55;;;1.23;;
73980;SDS011;62348;51.412;5.436;2023-03-11T16:18:41;3.80;;;1.35;;
73980;SDS011;62348;51.412;5.436;2023-03-11T16:21:08;3.30;;;1.23;;
73980;SDS011;62348;51.412;5.436;2023-03-11T16:26:05;3.88;;;1.20;;
73980;SDS011;62348;51.412;5.436;2023-03-11T16:28:33;6.18;;;1.33;;
73980;SDS011;62348;51.412;5.436;2023-03-11T16:30:59;5.68;;;1.40;;
73980;SDS011;62348;51.412;5.436;2023-03-11T16:33:24;2.72;;;1.25;;
73980;SDS011;62348;51.412;5.436;2023-03-11T16:35:50;3.55;;;1.40;;
73980;SDS011;62348;51.412;5.436;2023-03-11T16:38:15;1.60;;;1.25;;
73980;SDS011;62348;51.412;5.436;2023-03-11T16:40:43;2.40;;;1.02;;
73980;SDS011;62348;51.412;5.436;2023-03-11T16:43:10;4.55;;;1.52;;
73980;SDS011;62348;51.412;5.436;2023-03-11T16:45:37;9.18;;;1.65;;
73980;SDS011;62348;51.412;5.436;2023-03-11T16:48:03;2.30;;;1.05;;
73980;SDS011;62348;51.412;5.436;2023-03-11T16:50:29;1.58;;;1.10;;
73980;SDS011;62348;51.412;5.436;2023-03-11T16:52:55;2.50;;;1.27;;
73980;SDS011;62348;51.412;5.436;2023-03-11T16:55:21;4.07;;;1.45;;
73980;SDS011;62348;51.412;5.436;2023-03-11T16:57:48;2.35;;;1.20;;
73980;SDS011;62348;51.412;5.436;2023-03-11T17:00:13;1.95;;;1.33;;
73980;SDS011;62348;51.412;5.436;2023-03-11T17:02:39;1.77;;;1.38;;
73980;SDS011;62348;51.412;5.436;2023-03-11T17:05:05;2.72;;;1.27;;
73980;SDS011;62348;51.412;5.436;2023-03-11T17:07:32;4.90;;;1.30;;
73980;SDS011;62348;51.412;5.436;2023-03-11T17:09:58;2.78;;;1.23;;
73980;SDS011;62348;51.412;5.436;2023-03-11T17:12:25;3.35;;;1.20;;